createdAt,value
2022-08-14T00:02:45.266Z,22.86
2022-08-14T00:07:44.135Z,22.86
2022-08-14T00:12:53.322Z,22.83
2022-08-14T00:17:48.097Z,22.76
2022-08-14T00:22:57.478Z,22.73
2022-08-14T00:27:44.862Z,22.67
2022-08-14T00:32:52.399Z,22.67
2022-08-14T00:37:44.740Z,22.56
2022-08-14T00:42:54.920Z,22.46
2022-08-14T00:47:44.861Z,22.31
2022-08-14T00:52:43.671Z,22.18
2022-08-14T00:57:43.507Z,22.16
2022-08-14T01:02:43.563Z,22.11
2022-08-14T01:07:50.364Z,22.07
2022-08-14T01:12:44.652Z,22.11
2022-08-14T01:17:45.843Z,22.04
2022-08-14T01:22:44.417Z,21.98
2022-08-14T01:27:53.788Z,21.94
2022-08-14T01:32:44.102Z,21.81
2022-08-14T01:37:44.113Z,21.63
2022-08-14T01:42:43.073Z,21.59
2022-08-14T01:47:42.833Z,21.45
2022-08-14T01:52:59.686Z,21.35
2022-08-14T01:58:00.851Z,21.20
2022-08-14T02:02:43.671Z,21.28
2022-08-14T02:07:55.709Z,21.29
2022-08-14T02:12:43.634Z,21.34
2022-08-14T02:17:42.459Z,21.28
2022-08-14T02:22:47.906Z,21.26
2022-08-14T02:28:24.523Z,21.25
2022-08-14T02:32:43.262Z,21.22
2022-08-14T02:37:47.851Z,21.20
2022-08-14T02:42:55.106Z,21.23
2022-08-14T02:47:47.508Z,21.23
2022-08-14T02:53:07.399Z,21.22
2022-08-14T02:57:42.956Z,21.20
2022-08-14T03:02:55.949Z,21.22
2022-08-14T03:07:42.829Z,21.22
2022-08-14T03:12:41.785Z,21.20
2022-08-14T03:17:57.275Z,21.18
2022-08-14T03:22:42.725Z,21.18
2022-08-14T03:27:48.650Z,21.18
2022-08-14T03:32:42.691Z,21.13
2022-08-14T03:39:10.431Z,21.08
2022-08-14T03:42:42.382Z,21.05
2022-08-14T03:47:46.611Z,21.03
2022-08-14T03:52:55.451Z,21.03
2022-08-14T03:57:42.653Z,20.95
2022-08-14T04:02:47.104Z,20.90
2022-08-14T04:07:49.808Z,20.90
2022-08-14T04:12:42.046Z,20.95
2022-08-14T04:17:41.938Z,20.89
2022-08-14T04:22:40.897Z,20.89
2022-08-14T04:27:48.598Z,20.88
2022-08-14T04:33:00.930Z,20.83
2022-08-14T04:37:41.697Z,20.89
2022-08-14T04:42:47.668Z,20.86
2022-08-14T04:47:46.541Z,20.95
2022-08-14T04:52:41.488Z,20.97
2022-08-14T04:57:40.444Z,20.98
2022-08-14T05:02:40.425Z,21.01
2022-08-14T05:07:53.939Z,21.08
2022-08-14T05:13:12.814Z,21.04
2022-08-14T05:17:44.040Z,21.11
2022-08-14T05:22:41.141Z,21.20
2022-08-14T05:27:40.074Z,21.23
2022-08-14T05:32:40.069Z,21.35
2022-08-14T05:37:39.936Z,21.47
2022-08-14T05:42:40.873Z,21.50
2022-08-14T05:47:40.808Z,21.65
2022-08-14T05:52:39.748Z,21.77
2022-08-14T05:57:39.692Z,21.90
2022-08-14T06:02:39.620Z,22.03
2022-08-14T06:07:39.569Z,22.25
2022-08-14T06:12:56.405Z,22.43
2022-08-14T06:17:47.150Z,22.73
2022-08-14T06:22:40.441Z,22.98
2022-08-14T06:27:39.325Z,23.23
2022-08-14T06:32:42.107Z,23.41
2022-08-14T06:37:39.206Z,23.52
2022-08-14T06:42:39.132Z,23.61
2022-08-14T06:47:39.088Z,23.91
2022-08-14T06:52:39.021Z,24.11
2022-08-14T06:57:39.951Z,24.43
2022-08-14T07:02:43.464Z,24.70
2022-08-14T07:07:39.816Z,24.93
2022-08-14T07:12:56.060Z,25.18
2022-08-14T07:17:39.691Z,25.46
2022-08-14T07:22:55.991Z,25.73
2022-08-14T07:27:45.615Z,25.98
2022-08-14T07:32:38.488Z,26.31
2022-08-14T07:37:38.455Z,26.60
2022-08-14T07:42:38.386Z,26.95
2022-08-14T07:47:38.475Z,27.19
2022-08-14T07:52:38.275Z,27.58
2022-08-14T07:57:38.203Z,27.94
2022-08-14T08:02:38.261Z,28.32
2022-08-14T08:07:39.211Z,28.64
2022-08-14T08:12:38.091Z,29.10
2022-08-14T08:17:38.665Z,29.54
2022-08-14T08:22:37.907Z,29.49
2022-08-14T08:27:37.838Z,29.61
2022-08-14T08:32:38.779Z,29.93
2022-08-14T08:37:40.346Z,30.39
2022-08-14T08:42:44.718Z,30.93
2022-08-14T08:47:38.593Z,31.41
2022-08-14T08:52:37.552Z,31.71
2022-08-14T08:57:37.738Z,31.86
2022-08-14T09:02:37.450Z,31.71
2022-08-14T09:07:37.346Z,31.01
2022-08-14T09:12:37.316Z,31.12
2022-08-14T09:17:37.234Z,31.04
2022-08-14T09:22:42.494Z,30.90
2022-08-14T09:27:38.103Z,30.92
2022-08-14T09:32:59.000Z,31.68
2022-08-14T09:37:38.017Z,31.70
2022-08-14T09:42:36.936Z,32.11
2022-08-14T09:47:37.872Z,32.82
2022-08-14T09:52:36.808Z,33.55
2022-08-14T09:57:36.842Z,33.91
2022-08-14T10:02:36.723Z,34.16
2022-08-14T10:07:36.687Z,34.50
2022-08-14T10:12:36.573Z,34.62
2022-08-14T10:17:38.421Z,34.13
2022-08-14T10:23:15.141Z,34.30
2022-08-14T10:27:37.398Z,34.63
2022-08-14T10:32:41.857Z,35.19
2022-08-14T10:37:37.297Z,35.46
2022-08-14T10:42:36.266Z,34.67
2022-08-14T10:47:41.475Z,33.84
2022-08-14T10:52:37.113Z,33.91
2022-08-14T10:57:37.050Z,33.24
2022-08-14T11:02:50.198Z,33.14
2022-08-14T11:07:36.928Z,33.98
2022-08-14T11:12:40.229Z,34.78
2022-08-14T11:17:35.811Z,34.08
2022-08-14T11:22:56.542Z,34.11
2022-08-14T11:27:36.698Z,34.40
2022-08-14T11:32:35.674Z,34.07
2022-08-14T11:37:40.783Z,33.84
2022-08-14T11:42:56.796Z,33.52
2022-08-14T11:47:44.159Z,33.58
2022-08-14T11:52:36.387Z,32.87
2022-08-14T11:57:35.343Z,32.36
2022-08-14T12:03:01.780Z,32.08
2022-08-14T12:07:36.210Z,31.94
2022-08-14T12:12:36.636Z,31.74
2022-08-14T12:17:47.243Z,31.67
2022-08-14T12:22:36.033Z,31.71
2022-08-14T12:27:34.980Z,31.71
2022-08-14T12:32:35.971Z,31.52
2022-08-14T12:37:34.879Z,31.24
2022-08-14T12:42:38.683Z,31.05
2022-08-14T12:47:35.745Z,30.99
2022-08-14T12:52:43.177Z,31.02
2022-08-14T12:57:35.679Z,31.17
2022-08-14T13:02:34.560Z,31.32
2022-08-14T13:07:34.518Z,31.48
2022-08-14T13:12:43.157Z,31.41
2022-08-14T13:17:38.018Z,31.17
2022-08-14T13:22:38.392Z,31.02
2022-08-14T13:27:41.282Z,30.95
2022-08-14T13:32:34.165Z,30.90
2022-08-14T13:37:34.125Z,30.99
2022-08-14T13:42:34.059Z,31.08
2022-08-14T13:47:34.008Z,31.70
2022-08-14T13:52:52.721Z,31.86
2022-08-14T13:57:34.872Z,31.49
2022-08-14T14:02:34.394Z,31.20
2022-08-14T14:07:33.770Z,31.01
2022-08-14T14:12:38.321Z,31.37
2022-08-14T14:17:34.648Z,31.84
2022-08-14T14:22:36.064Z,31.56
2022-08-14T14:27:40.854Z,31.22
2022-08-14T14:32:34.454Z,31.38
2022-08-14T14:37:33.391Z,31.76
2022-08-14T14:42:35.415Z,31.86
2022-08-14T14:47:33.306Z,32.05
2022-08-14T14:52:37.238Z,32.38
2022-08-14T14:57:35.085Z,32.60
2022-08-14T15:02:33.106Z,32.79
2022-08-14T15:07:33.212Z,32.79
2022-08-14T15:12:55.695Z,32.82
2022-08-14T15:17:35.302Z,32.50
2022-08-14T15:22:33.867Z,32.36
2022-08-14T15:27:32.789Z,31.94
2022-08-14T15:32:32.731Z,31.42
2022-08-14T15:37:33.889Z,31.04
2022-08-14T15:42:32.631Z,30.77
2022-08-14T15:47:32.556Z,30.64
2022-08-14T15:52:34.832Z,30.49
2022-08-14T15:57:33.433Z,30.45
2022-08-14T16:02:32.384Z,30.62
2022-08-14T16:07:32.318Z,30.77
2022-08-14T16:12:41.757Z,30.86
2022-08-14T16:17:33.173Z,30.85
2022-08-14T16:27:39.478Z,30.80
2022-08-14T16:32:36.201Z,30.70
2022-08-14T16:37:34.248Z,30.60
2022-08-14T16:40:24.798Z,30.85
2022-08-14T16:42:38.839Z,30.40
2022-08-14T16:47:35.220Z,30.24
2022-08-14T16:52:44.196Z,29.99
2022-08-14T16:57:32.737Z,29.84
2022-08-14T17:02:31.632Z,29.70
2022-08-14T17:07:31.585Z,29.43
2022-08-14T17:12:35.122Z,29.18
2022-08-14T17:17:31.446Z,29.04
2022-08-14T17:22:31.387Z,28.96
2022-08-14T17:27:31.320Z,28.81
2022-08-14T17:32:55.728Z,28.66
2022-08-14T17:37:34.220Z,28.52
2022-08-14T17:42:33.674Z,28.37
2022-08-14T17:47:31.104Z,28.25
2022-08-14T17:52:35.823Z,28.12
2022-08-14T17:57:35.313Z,27.98
2022-08-14T18:02:31.841Z,27.83
2022-08-14T18:07:59.358Z,27.70
2022-08-14T18:12:32.614Z,27.54
2022-08-14T18:17:30.724Z,27.40
2022-08-14T18:22:32.860Z,27.27
2022-08-14T18:27:31.573Z,27.08
2022-08-14T18:32:30.516Z,26.95
2022-08-14T18:37:30.444Z,26.85
2022-08-14T18:42:30.705Z,26.76
2022-08-14T18:47:56.580Z,26.64
2022-08-14T18:52:34.284Z,26.49
2022-08-14T18:57:40.240Z,26.39
2022-08-14T19:02:31.324Z,26.28
2022-08-14T19:07:34.171Z,26.21
2022-08-14T19:12:35.131Z,26.10
2022-08-14T19:17:30.947Z,26.00
2022-08-14T19:22:30.887Z,25.92
2022-08-14T19:27:47.660Z,25.85
2022-08-14T19:32:30.847Z,25.73
2022-08-14T19:37:29.691Z,25.64
2022-08-14T19:42:30.963Z,25.59
2022-08-14T19:47:38.667Z,25.49
2022-08-14T19:52:35.222Z,25.46
2022-08-14T19:57:30.435Z,25.41
2022-08-14T20:02:30.337Z,25.31
2022-08-14T20:08:09.069Z,25.23
2022-08-14T20:12:36.552Z,25.16
2022-08-14T20:17:30.201Z,25.09
2022-08-14T20:22:36.995Z,25.06
2022-08-14T20:27:33.988Z,25.00
2022-08-14T20:32:30.024Z,24.93
2022-08-14T20:37:28.946Z,24.82
2022-08-14T20:42:28.898Z,24.76
2022-08-14T20:47:28.817Z,24.66
2022-08-14T20:52:29.765Z,24.59
2022-08-14T20:57:28.697Z,24.62
2022-08-14T21:02:34.370Z,24.52
2022-08-14T21:07:36.091Z,24.44
2022-08-14T21:12:34.907Z,24.36
2022-08-14T21:17:29.443Z,24.25
2022-08-14T21:22:28.424Z,24.23
2022-08-14T21:27:29.329Z,24.18
2022-08-14T21:32:29.271Z,24.15
2022-08-14T21:37:29.839Z,24.15
2022-08-14T21:42:28.182Z,24.10
2022-08-14T21:47:28.062Z,24.01
2022-08-14T21:52:50.677Z,23.94
2022-08-14T21:57:56.615Z,23.86
2022-08-14T22:02:32.607Z,23.85
2022-08-14T22:07:29.369Z,23.76
2022-08-14T22:12:57.569Z,23.70
2022-08-14T22:17:32.356Z,23.61
2022-08-14T22:22:28.658Z,23.55
2022-08-14T22:27:27.578Z,23.44
2022-08-14T22:32:35.316Z,23.41
2022-08-14T22:37:28.488Z,23.33
2022-08-14T22:42:27.434Z,23.34
2022-08-14T22:47:40.536Z,23.33
2022-08-14T22:52:32.959Z,23.18
2022-08-14T22:57:37.595Z,23.07
2022-08-14T23:02:30.593Z,22.99
2022-08-14T23:08:44.122Z,22.92
2022-08-14T23:12:29.547Z,22.83
2022-08-14T23:17:26.933Z,22.81
2022-08-14T23:22:26.861Z,22.77
2022-08-14T23:27:28.421Z,22.80
2022-08-14T23:32:27.734Z,22.73
2022-08-14T23:37:27.077Z,22.71
2022-08-14T23:42:40.388Z,22.61
2022-08-14T23:47:27.937Z,22.48
2022-08-14T23:52:55.761Z,22.46
2022-08-14T23:57:30.741Z,22.44
